aviador You're here:

KJMS Decoded Metar

JAMESTOWN in ND, USA
Report Time2018-01-22 10:56:00
UTC Time2018-01-22 11:56:36
Flight Rules ifr IFR
Wind070° at 08 kt
W.Decomp.*RWY 04: 7.4 kt HW 3.0 kt RCW
RWY 13: 3.0 kt HW 7.4 kt LCW
W.Rank070° ranks 28
Current wind is above 070° avg. (7.7)
Visibility9999 m
Phenomena:N/A
Clouds:Overcast 007 Hf
Expected CloudBase > 400 ft AGL from Temp-Dew spread
Ceiling700 ft
Temp-5°C (ISA -17)
Dew Point-6°C (93% RH)
AAT-10.6°C
QNH1017 hPa
Density Alt-682 ft
Elevation1,493 ft
Report Wrong Elevation
Raw Report
KJMS 221056Z AUTO 07008KT 10SM OVC007 M05/M06 A3004 RMK AO2 SLP195
T10501061=

Extra information for KJMS:More info

Metar Taf Metar & Taf Last 4 Metars F.Rules Stats Wind Profile Meteogram Temp Stats Airport Information Weather charts Add Link Nearby VenuesMetar ALERT Operation Metar Decoded Social comments

AIRNAV info for KJMS